sensor_id;sensor_type;location;lat;lon;timestamp;temperature;humidity
36424;DHT22;22458;45.328;9.514;2022-10-16T00:00:27;20.30;82.50
36424;DHT22;22458;45.328;9.514;2022-10-16T00:02:53;20.30;82.50
36424;DHT22;22458;45.328;9.514;2022-10-16T00:05:18;20.30;82.50
36424;DHT22;22458;45.328;9.514;2022-10-16T00:07:44;20.40;82.40
36424;DHT22;22458;45.328;9.514;2022-10-16T00:10:10;20.30;82.40
36424;DHT22;22458;45.328;9.514;2022-10-16T00:12:35;20.40;82.40
36424;DHT22;22458;45.328;9.514;2022-10-16T00:15:01;20.30;82.50
36424;DHT22;22458;45.328;9.514;2022-10-16T00:17:26;20.10;82.80
36424;DHT22;22458;45.328;9.514;2022-10-16T00:19:52;20.10;83.10
36424;DHT22;22458;45.328;9.514;2022-10-16T00:22:18;20.10;83.10
36424;DHT22;22458;45.328;9.514;2022-10-16T00:24:43;20.10;82.90
36424;DHT22;22458;45.328;9.514;2022-10-16T00:27:09;20.10;82.90
36424;DHT22;22458;45.328;9.514;2022-10-16T00:29:34;20.10;82.90
36424;DHT22;22458;45.328;9.514;2022-10-16T00:32:00;20.10;82.80
36424;DHT22;22458;45.328;9.514;2022-10-16T00:34:25;20.20;82.90
36424;DHT22;22458;45.328;9.514;2022-10-16T00:36:51;20.20;82.90
36424;DHT22;22458;45.328;9.514;2022-10-16T00:39:17;20.20;82.80
36424;DHT22;22458;45.328;9.514;2022-10-16T00:41:42;20.30;82.80
36424;DHT22;22458;45.328;9.514;2022-10-16T00:46:52;20.30;82.80
36424;DHT22;22458;45.328;9.514;2022-10-16T00:49:18;20.30;82.70
36424;DHT22;22458;45.328;9.514;2022-10-16T00:51:45;20.30;82.70
36424;DHT22;22458;45.328;9.514;2022-10-16T00:54:17;20.30;82.80
36424;DHT22;22458;45.328;9.514;2022-10-16T00:56:44;20.30;82.90
36424;DHT22;22458;45.328;9.514;2022-10-16T00:59:53;20.20;82.90
36424;DHT22;22458;45.328;9.514;2022-10-16T01:02:00;20.30;82.80
36424;DHT22;22458;45.328;9.514;2022-10-16T01:04:26;20.30;82.70
36424;DHT22;22458;45.328;9.514;2022-10-16T01:12:52;20.30;82.80
36424;DHT22;22458;45.328;9.514;2022-10-16T01:20:04;20.30;83.00
36424;DHT22;22458;45.328;9.514;2022-10-16T01:25:36;20.30;83.50
36424;DHT22;22458;45.328;9.514;2022-10-16T01:28:05;20.30;82.90
36424;DHT22;22458;45.328;9.514;2022-10-16T01:30:32;20.30;82.90
36424;DHT22;22458;45.328;9.514;2022-10-16T01:38:30;20.30;82.80
36424;DHT22;22458;45.328;9.514;2022-10-16T01:41:01;20.20;82.70
36424;DHT22;22458;45.328;9.514;2022-10-16T01:43:30;20.20;82.70
36424;DHT22;22458;45.328;9.514;2022-10-16T01:45:56;20.30;82.80
36424;DHT22;22458;45.328;9.514;2022-10-16T01:48:22;20.30;82.80
36424;DHT22;22458;45.328;9.514;2022-10-16T01:50:57;20.20;82.80
36424;DHT22;22458;45.328;9.514;2022-10-16T01:53:24;20.20;82.90
36424;DHT22;22458;45.328;9.514;2022-10-16T01:55:51;20.00;83.00
36424;DHT22;22458;45.328;9.514;2022-10-16T01:58:19;19.80;83.40
36424;DHT22;22458;45.328;9.514;2022-10-16T02:00:45;19.60;83.90
36424;DHT22;22458;45.328;9.514;2022-10-16T02:03:12;19.40;84.40
36424;DHT22;22458;45.328;9.514;2022-10-16T02:08:05;19.50;84.30
36424;DHT22;22458;45.328;9.514;2022-10-16T02:10:31;19.40;84.10
36424;DHT22;22458;45.328;9.514;2022-10-16T02:13:10;19.50;84.00
36424;DHT22;22458;45.328;9.514;2022-10-16T02:15:36;19.50;83.90
36424;DHT22;22458;45.328;9.514;2022-10-16T02:18:02;19.60;83.90
36424;DHT22;22458;45.328;9.514;2022-10-16T02:20:29;19.60;83.90
36424;DHT22;22458;45.328;9.514;2022-10-16T02:22:56;19.60;83.70
36424;DHT22;22458;45.328;9.514;2022-10-16T02:25:24;19.60;83.70
36424;DHT22;22458;45.328;9.514;2022-10-16T02:27:57;19.60;83.60
36424;DHT22;22458;45.328;9.514;2022-10-16T02:33:00;19.60;83.70
36424;DHT22;22458;45.328;9.514;2022-10-16T02:35:26;19.60;83.60
36424;DHT22;22458;45.328;9.514;2022-10-16T02:37:53;19.60;83.60
36424;DHT22;22458;45.328;9.514;2022-10-16T02:40:19;19.60;83.70
36424;DHT22;22458;45.328;9.514;2022-10-16T02:42:49;19.70;83.60
36424;DHT22;22458;45.328;9.514;2022-10-16T02:45:15;19.60;83.60
36424;DHT22;22458;45.328;9.514;2022-10-16T02:47:41;19.60;83.60
36424;DHT22;22458;45.328;9.514;2022-10-16T02:50:06;19.60;83.60
36424;DHT22;22458;45.328;9.514;2022-10-16T02:52:32;19.60;83.60
36424;DHT22;22458;45.328;9.514;2022-10-16T02:54:57;19.50;83.70
36424;DHT22;22458;45.328;9.514;2022-10-16T02:57:23;19.40;83.90
36424;DHT22;22458;45.328;9.514;2022-10-16T02:59:49;19.40;84.10
36424;DHT22;22458;45.328;9.514;2022-10-16T03:02:14;19.40;84.00
36424;DHT22;22458;45.328;9.514;2022-10-16T03:04:40;19.40;84.00
36424;DHT22;22458;45.328;9.514;2022-10-16T03:07:06;19.50;83.90
36424;DHT22;22458;45.328;9.514;2022-10-16T03:09:31;19.50;83.90
36424;DHT22;22458;45.328;9.514;2022-10-16T03:11:57;19.50;83.90
36424;DHT22;22458;45.328;9.514;2022-10-16T03:14:23;19.60;83.80
36424;DHT22;22458;45.328;9.514;2022-10-16T03:16:48;19.60;83.70
36424;DHT22;22458;45.328;9.514;2022-10-16T03:19:15;19.50;84.00
36424;DHT22;22458;45.328;9.514;2022-10-16T03:21:41;19.50;84.10
36424;DHT22;22458;45.328;9.514;2022-10-16T03:24:06;19.50;84.10
36424;DHT22;22458;45.328;9.514;2022-10-16T03:26:32;19.50;84.10
36424;DHT22;22458;45.328;9.514;2022-10-16T03:28:58;19.60;84.00
36424;DHT22;22458;45.328;9.514;2022-10-16T03:31:23;19.60;84.40
36424;DHT22;22458;45.328;9.514;2022-10-16T03:33:49;19.60;83.80
36424;DHT22;22458;45.328;9.514;2022-10-16T03:36:14;19.60;83.80
36424;DHT22;22458;45.328;9.514;2022-10-16T03:38:40;19.60;83.70
36424;DHT22;22458;45.328;9.514;2022-10-16T03:41:06;19.60;83.70
36424;DHT22;22458;45.328;9.514;2022-10-16T03:43:33;19.60;83.70
36424;DHT22;22458;45.328;9.514;2022-10-16T03:45:58;19.50;83.80
36424;DHT22;22458;45.328;9.514;2022-10-16T03:48:24;19.50;83.90
36424;DHT22;22458;45.328;9.514;2022-10-16T03:50:49;19.50;83.80
36424;DHT22;22458;45.328;9.514;2022-10-16T03:53:17;19.40;84.10
36424;DHT22;22458;45.328;9.514;2022-10-16T03:55:43;19.20;84.50
36424;DHT22;22458;45.328;9.514;2022-10-16T03:58:08;19.20;84.80
36424;DHT22;22458;45.328;9.514;2022-10-16T04:00:34;19.20;84.70
36424;DHT22;22458;45.328;9.514;2022-10-16T04:03:00;19.30;84.50
36424;DHT22;22458;45.328;9.514;2022-10-16T04:05:26;19.20;84.50
36424;DHT22;22458;45.328;9.514;2022-10-16T04:07:52;19.10;84.80
36424;DHT22;22458;45.328;9.514;2022-10-16T04:10:18;19.20;84.90
36424;DHT22;22458;45.328;9.514;2022-10-16T04:12:44;19.20;84.70
36424;DHT22;22458;45.328;9.514;2022-10-16T04:15:10;19.30;84.60
36424;DHT22;22458;45.328;9.514;2022-10-16T04:17:35;19.40;84.50
36424;DHT22;22458;45.328;9.514;2022-10-16T04:20:01;19.40;84.30
36424;DHT22;22458;45.328;9.514;2022-10-16T04:22:27;19.40;84.20
36424;DHT22;22458;45.328;9.514;2022-10-16T04:24:53;19.40;84.50
36424;DHT22;22458;45.328;9.514;2022-10-16T04:27:18;19.20;84.60
36424;DHT22;22458;45.328;9.514;2022-10-16T04:29:44;19.20;84.80
36424;DHT22;22458;45.328;9.514;2022-10-16T04:32:10;19.10;85.20
36424;DHT22;22458;45.328;9.514;2022-10-16T04:34:35;19.00;85.40
36424;DHT22;22458;45.328;9.514;2022-10-16T04:37:01;19.00;85.40
36424;DHT22;22458;45.328;9.514;2022-10-16T04:39:27;19.10;85.40
36424;DHT22;22458;45.328;9.514;2022-10-16T04:41:52;19.20;85.20
36424;DHT22;22458;45.328;9.514;2022-10-16T04:44:18;19.20;85.10
36424;DHT22;22458;45.328;9.514;2022-10-16T04:46:44;19.20;85.00
36424;DHT22;22458;45.328;9.514;2022-10-16T04:49:09;19.20;85.00
36424;DHT22;22458;45.328;9.514;2022-10-16T04:51:35;19.30;84.90
36424;DHT22;22458;45.328;9.514;2022-10-16T04:54:01;19.40;84.90
36424;DHT22;22458;45.328;9.514;2022-10-16T04:56:27;19.40;84.80
36424;DHT22;22458;45.328;9.514;2022-10-16T04:58:52;19.40;84.80
36424;DHT22;22458;45.328;9.514;2022-10-16T05:01:18;19.40;84.80
36424;DHT22;22458;45.328;9.514;2022-10-16T05:03:43;19.50;84.80
36424;DHT22;22458;45.328;9.514;2022-10-16T05:06:09;19.50;84.70
36424;DHT22;22458;45.328;9.514;2022-10-16T05:08:36;19.50;84.60
36424;DHT22;22458;45.328;9.514;2022-10-16T05:11:01;19.50;84.60
36424;DHT22;22458;45.328;9.514;2022-10-16T05:13:27;19.50;84.50
36424;DHT22;22458;45.328;9.514;2022-10-16T05:15:52;19.50;84.50
36424;DHT22;22458;45.328;9.514;2022-10-16T05:18:18;19.20;84.80
36424;DHT22;22458;45.328;9.514;2022-10-16T05:20:44;18.90;85.70
36424;DHT22;22458;45.328;9.514;2022-10-16T05:23:09;18.70;86.50
36424;DHT22;22458;45.328;9.514;2022-10-16T05:25:35;18.70;86.80
36424;DHT22;22458;45.328;9.514;2022-10-16T05:28:01;18.70;86.60
36424;DHT22;22458;45.328;9.514;2022-10-16T05:30:27;18.80;86.40
36424;DHT22;22458;45.328;9.514;2022-10-16T05:32:52;18.90;86.30
36424;DHT22;22458;45.328;9.514;2022-10-16T05:35:18;19.00;86.00
36424;DHT22;22458;45.328;9.514;2022-10-16T05:37:44;19.10;85.80
36424;DHT22;22458;45.328;9.514;2022-10-16T05:40:10;19.10;85.60
36424;DHT22;22458;45.328;9.514;2022-10-16T05:42:36;19.20;85.40
36424;DHT22;22458;45.328;9.514;2022-10-16T05:45:03;19.30;85.40
36424;DHT22;22458;45.328;9.514;2022-10-16T05:47:28;19.30;85.20
36424;DHT22;22458;45.328;9.514;2022-10-16T05:49:54;19.40;85.20
36424;DHT22;22458;45.328;9.514;2022-10-16T05:52:20;19.30;85.10
36424;DHT22;22458;45.328;9.514;2022-10-16T05:54:46;19.40;85.20
36424;DHT22;22458;45.328;9.514;2022-10-16T05:57:11;19.40;85.10
36424;DHT22;22458;45.328;9.514;2022-10-16T05:59:37;19.40;85.00
36424;DHT22;22458;45.328;9.514;2022-10-16T06:02:03;19.10;85.50
36424;DHT22;22458;45.328;9.514;2022-10-16T06:04:28;18.90;86.10
36424;DHT22;22458;45.328;9.514;2022-10-16T06:06:57;18.80;86.60
36424;DHT22;22458;45.328;9.514;2022-10-16T06:09:23;18.90;86.40
36424;DHT22;22458;45.328;9.514;2022-10-16T06:11:48;19.00;86.10
36424;DHT22;22458;45.328;9.514;2022-10-16T06:14:14;19.10;85.90
36424;DHT22;22458;45.328;9.514;2022-10-16T06:16:39;19.20;85.70
36424;DHT22;22458;45.328;9.514;2022-10-16T06:19:05;19.20;85.60
36424;DHT22;22458;45.328;9.514;2022-10-16T06:21:32;19.30;85.50
36424;DHT22;22458;45.328;9.514;2022-10-16T06:23:58;19.40;85.40
36424;DHT22;22458;45.328;9.514;2022-10-16T06:26:25;19.40;85.30
36424;DHT22;22458;45.328;9.514;2022-10-16T06:28:50;19.50;85.30
36424;DHT22;22458;45.328;9.514;2022-10-16T06:31:16;19.50;85.10
36424;DHT22;22458;45.328;9.514;2022-10-16T06:33:42;19.60;85.00
36424;DHT22;22458;45.328;9.514;2022-10-16T06:36:12;19.60;85.00
36424;DHT22;22458;45.328;9.514;2022-10-16T06:38:38;19.70;85.00
36424;DHT22;22458;45.328;9.514;2022-10-16T06:41:04;19.70;85.50
36424;DHT22;22458;45.328;9.514;2022-10-16T06:43:30;19.60;85.00
36424;DHT22;22458;45.328;9.514;2022-10-16T06:46:00;19.60;85.10
36424;DHT22;22458;45.328;9.514;2022-10-16T06:48:27;19.60;85.20
36424;DHT22;22458;45.328;9.514;2022-10-16T06:50:56;19.60;85.20
36424;DHT22;22458;45.328;9.514;2022-10-16T06:53:22;19.60;85.20
36424;DHT22;22458;45.328;9.514;2022-10-16T06:55:48;19.60;85.40
36424;DHT22;22458;45.328;9.514;2022-10-16T06:58:14;19.60;85.40
36424;DHT22;22458;45.328;9.514;2022-10-16T07:00:39;19.70;85.30
36424;DHT22;22458;45.328;9.514;2022-10-16T07:03:05;19.80;85.30
36424;DHT22;22458;45.328;9.514;2022-10-16T07:05:30;19.80;85.20
36424;DHT22;22458;45.328;9.514;2022-10-16T07:07:56;19.80;85.10
36424;DHT22;22458;45.328;9.514;2022-10-16T07:10:22;19.80;85.00
36424;DHT22;22458;45.328;9.514;2022-10-16T07:12:49;19.90;84.90
36424;DHT22;22458;45.328;9.514;2022-10-16T07:15:15;19.90;84.90
36424;DHT22;22458;45.328;9.514;2022-10-16T07:17:40;19.90;84.90
36424;DHT22;22458;45.328;9.514;2022-10-16T07:20:06;19.90;85.00
36424;DHT22;22458;45.328;9.514;2022-10-16T07:22:32;20.00;85.10
36424;DHT22;22458;45.328;9.514;2022-10-16T07:24:58;20.00;85.10
36424;DHT22;22458;45.328;9.514;2022-10-16T07:27:24;20.00;85.10
36424;DHT22;22458;45.328;9.514;2022-10-16T07:29:49;20.10;85.10
36424;DHT22;22458;45.328;9.514;2022-10-16T07:32:15;20.00;85.10
36424;DHT22;22458;45.328;9.514;2022-10-16T07:34:41;20.10;85.10
36424;DHT22;22458;45.328;9.514;2022-10-16T07:37:07;20.10;85.20
36424;DHT22;22458;45.328;9.514;2022-10-16T07:39:33;20.10;85.30
36424;DHT22;22458;45.328;9.514;2022-10-16T07:41:58;20.10;85.20
36424;DHT22;22458;45.328;9.514;2022-10-16T07:44:24;20.20;85.20
36424;DHT22;22458;45.328;9.514;2022-10-16T07:46:50;20.20;85.00
36424;DHT22;22458;45.328;9.514;2022-10-16T07:49:15;20.30;84.90
36424;DHT22;22458;45.328;9.514;2022-10-16T07:51:41;20.40;84.80
36424;DHT22;22458;45.328;9.514;2022-10-16T07:54:08;20.50;85.20
36424;DHT22;22458;45.328;9.514;2022-10-16T07:56:33;20.60;84.50
36424;DHT22;22458;45.328;9.514;2022-10-16T07:58:59;20.60;84.40
36424;DHT22;22458;45.328;9.514;2022-10-16T08:01:24;20.70;84.30
36424;DHT22;22458;45.328;9.514;2022-10-16T08:03:50;20.80;84.20
36424;DHT22;22458;45.328;9.514;2022-10-16T08:06:16;20.80;84.10
36424;DHT22;22458;45.328;9.514;2022-10-16T08:08:42;20.80;83.90
36424;DHT22;22458;45.328;9.514;2022-10-16T08:11:08;20.90;84.00
36424;DHT22;22458;45.328;9.514;2022-10-16T08:13:34;21.00;83.80
36424;DHT22;22458;45.328;9.514;2022-10-16T08:16:00;21.10;83.80
36424;DHT22;22458;45.328;9.514;2022-10-16T08:18:25;21.10;83.50
36424;DHT22;22458;45.328;9.514;2022-10-16T08:20:55;21.20;83.40
36424;DHT22;22458;45.328;9.514;2022-10-16T08:23:21;21.20;83.30
36424;DHT22;22458;45.328;9.514;2022-10-16T08:25:46;21.30;83.20
36424;DHT22;22458;45.328;9.514;2022-10-16T08:28:12;21.40;83.10
36424;DHT22;22458;45.328;9.514;2022-10-16T08:30:38;21.50;82.90
36424;DHT22;22458;45.328;9.514;2022-10-16T08:33:03;21.50;82.80
36424;DHT22;22458;45.328;9.514;2022-10-16T08:35:29;21.60;82.70
36424;DHT22;22458;45.328;9.514;2022-10-16T08:37:55;21.60;82.70
36424;DHT22;22458;45.328;9.514;2022-10-16T08:40:22;21.70;82.60
36424;DHT22;22458;45.328;9.514;2022-10-16T08:50:30;21.90;82.10
36424;DHT22;22458;45.328;9.514;2022-10-16T08:52:56;22.10;82.10
36424;DHT22;22458;45.328;9.514;2022-10-16T08:58:00;22.10;81.70
36424;DHT22;22458;45.328;9.514;2022-10-16T09:00:26;22.10;81.60
36424;DHT22;22458;45.328;9.514;2022-10-16T09:10:21;22.40;81.00
36424;DHT22;22458;45.328;9.514;2022-10-16T09:12:53;22.40;80.80
36424;DHT22;22458;45.328;9.514;2022-10-16T09:15:39;22.60;80.70
36424;DHT22;22458;45.328;9.514;2022-10-16T09:20:51;22.60;80.70
36424;DHT22;22458;45.328;9.514;2022-10-16T09:23:21;22.70;80.70
36424;DHT22;22458;45.328;9.514;2022-10-16T09:25:48;22.80;80.60
36424;DHT22;22458;45.328;9.514;2022-10-16T09:28:15;22.80;81.10
36424;DHT22;22458;45.328;9.514;2022-10-16T09:30:41;22.80;80.50
36424;DHT22;22458;45.328;9.514;2022-10-16T09:33:07;23.00;80.70
36424;DHT22;22458;45.328;9.514;2022-10-16T09:35:38;23.10;80.70
36424;DHT22;22458;45.328;9.514;2022-10-16T09:38:04;23.20;80.40
36424;DHT22;22458;45.328;9.514;2022-10-16T09:40:33;23.20;80.30
36424;DHT22;22458;45.328;9.514;2022-10-16T09:45:58;23.60;80.00
36424;DHT22;22458;45.328;9.514;2022-10-16T09:48:25;23.80;79.30
36424;DHT22;22458;45.328;9.514;2022-10-16T09:50:55;24.00;79.00
36424;DHT22;22458;45.328;9.514;2022-10-16T09:53:21;24.10;78.90
36424;DHT22;22458;45.328;9.514;2022-10-16T09:55:51;24.20;78.60
36424;DHT22;22458;45.328;9.514;2022-10-16T09:58:17;24.30;78.30
36424;DHT22;22458;45.328;9.514;2022-10-16T10:00:52;24.30;78.10
36424;DHT22;22458;45.328;9.514;2022-10-16T10:03:40;24.30;78.00
36424;DHT22;22458;45.328;9.514;2022-10-16T10:06:24;24.30;77.80
36424;DHT22;22458;45.328;9.514;2022-10-16T10:08:58;24.30;77.80
36424;DHT22;22458;45.328;9.514;2022-10-16T10:19:37;24.60;76.60
36424;DHT22;22458;45.328;9.514;2022-10-16T10:22:12;24.60;76.40
36424;DHT22;22458;45.328;9.514;2022-10-16T10:24:39;24.70;76.20
36424;DHT22;22458;45.328;9.514;2022-10-16T10:27:15;24.60;76.10
36424;DHT22;22458;45.328;9.514;2022-10-16T10:29:58;24.60;76.00
36424;DHT22;22458;45.328;9.514;2022-10-16T10:32:35;24.60;75.80
36424;DHT22;22458;45.328;9.514;2022-10-16T10:35:07;24.70;75.40
36424;DHT22;22458;45.328;9.514;2022-10-16T10:40:24;24.80;75.10
36424;DHT22;22458;45.328;9.514;2022-10-16T10:42:54;24.80;74.80
36424;DHT22;22458;45.328;9.514;2022-10-16T10:45:26;24.80;74.80
36424;DHT22;22458;45.328;9.514;2022-10-16T10:50:52;24.90;74.30
36424;DHT22;22458;45.328;9.514;2022-10-16T10:53:25;24.80;74.20
36424;DHT22;22458;45.328;9.514;2022-10-16T11:01:13;25.00;73.80
36424;DHT22;22458;45.328;9.514;2022-10-16T11:06:12;25.10;73.40
36424;DHT22;22458;45.328;9.514;2022-10-16T11:16:06;25.20;72.40
36424;DHT22;22458;45.328;9.514;2022-10-16T11:21:17;25.20;72.30
36424;DHT22;22458;45.328;9.514;2022-10-16T11:23:49;25.30;72.10
36424;DHT22;22458;45.328;9.514;2022-10-16T11:26:19;25.30;71.80
36424;DHT22;22458;45.328;9.514;2022-10-16T11:28:48;25.40;72.40
36424;DHT22;22458;45.328;9.514;2022-10-16T11:31:16;25.50;71.70
36424;DHT22;22458;45.328;9.514;2022-10-16T11:36:11;25.40;71.00
36424;DHT22;22458;45.328;9.514;2022-10-16T11:38:50;25.30;71.10
36424;DHT22;22458;45.328;9.514;2022-10-16T11:44:06;25.60;70.90
36424;DHT22;22458;45.328;9.514;2022-10-16T11:46:35;25.60;70.50
36424;DHT22;22458;45.328;9.514;2022-10-16T11:49:07;25.70;70.50
36424;DHT22;22458;45.328;9.514;2022-10-16T11:56:48;25.80;70.30
36424;DHT22;22458;45.328;9.514;2022-10-16T12:04:43;25.90;70.00
36424;DHT22;22458;45.328;9.514;2022-10-16T12:07:11;25.90;70.00
36424;DHT22;22458;45.328;9.514;2022-10-16T12:09:39;25.90;70.10
36424;DHT22;22458;45.328;9.514;2022-10-16T12:12:23;25.80;70.00
36424;DHT22;22458;45.328;9.514;2022-10-16T12:14:59;25.70;69.80
36424;DHT22;22458;45.328;9.514;2022-10-16T12:17:27;25.60;69.90
36424;DHT22;22458;45.328;9.514;2022-10-16T12:22:36;25.60;70.20
36424;DHT22;22458;45.328;9.514;2022-10-16T12:25:02;25.60;70.10
36424;DHT22;22458;45.328;9.514;2022-10-16T12:27:28;25.50;69.90
36424;DHT22;22458;45.328;9.514;2022-10-16T12:29:58;25.40;70.10
36424;DHT22;22458;45.328;9.514;2022-10-16T12:34:50;25.30;70.10
36424;DHT22;22458;45.328;9.514;2022-10-16T12:39:51;25.30;70.10
36424;DHT22;22458;45.328;9.514;2022-10-16T12:42:50;25.40;70.00
36424;DHT22;22458;45.328;9.514;2022-10-16T12:47:50;25.40;70.00
36424;DHT22;22458;45.328;9.514;2022-10-16T12:52:51;25.50;69.90
36424;DHT22;22458;45.328;9.514;2022-10-16T12:55:18;25.50;69.70
36424;DHT22;22458;45.328;9.514;2022-10-16T13:00:26;25.70;69.50
36424;DHT22;22458;45.328;9.514;2022-10-16T13:03:01;25.80;69.30
36424;DHT22;22458;45.328;9.514;2022-10-16T13:08:05;25.80;69.00
36424;DHT22;22458;45.328;9.514;2022-10-16T13:10:38;25.80;68.60
36424;DHT22;22458;45.328;9.514;2022-10-16T13:23:33;25.90;68.60
36424;DHT22;22458;45.328;9.514;2022-10-16T13:28:32;26.00;68.30
36424;DHT22;22458;45.328;9.514;2022-10-16T13:30:59;26.00;68.20
36424;DHT22;22458;45.328;9.514;2022-10-16T13:33:35;26.10;68.10
36424;DHT22;22458;45.328;9.514;2022-10-16T13:36:01;26.00;68.20
36424;DHT22;22458;45.328;9.514;2022-10-16T13:38:28;25.80;68.20
36424;DHT22;22458;45.328;9.514;2022-10-16T13:40:55;25.80;68.20
36424;DHT22;22458;45.328;9.514;2022-10-16T13:43:26;25.70;68.00
36424;DHT22;22458;45.328;9.514;2022-10-16T13:45:59;25.70;68.60
36424;DHT22;22458;45.328;9.514;2022-10-16T13:48:25;25.80;68.00
36424;DHT22;22458;45.328;9.514;2022-10-16T13:50:58;25.80;67.90
36424;DHT22;22458;45.328;9.514;2022-10-16T13:53:23;25.90;67.90
36424;DHT22;22458;45.328;9.514;2022-10-16T13:55:49;26.00;68.20
36424;DHT22;22458;45.328;9.514;2022-10-16T13:58:15;26.00;67.60
36424;DHT22;22458;45.328;9.514;2022-10-16T14:00:41;26.00;67.40
36424;DHT22;22458;45.328;9.514;2022-10-16T14:03:18;26.00;67.40
36424;DHT22;22458;45.328;9.514;2022-10-16T14:05:49;26.10;67.30
36424;DHT22;22458;45.328;9.514;2022-10-16T14:08:15;26.10;67.00
36424;DHT22;22458;45.328;9.514;2022-10-16T14:10:40;26.20;67.00
36424;DHT22;22458;45.328;9.514;2022-10-16T14:13:06;26.20;66.90
36424;DHT22;22458;45.328;9.514;2022-10-16T14:15:33;26.20;66.70
36424;DHT22;22458;45.328;9.514;2022-10-16T14:17:59;26.30;66.70
36424;DHT22;22458;45.328;9.514;2022-10-16T14:20:29;26.30;66.60
36424;DHT22;22458;45.328;9.514;2022-10-16T14:23:03;26.30;66.60
36424;DHT22;22458;45.328;9.514;2022-10-16T14:25:30;26.30;66.60
36424;DHT22;22458;45.328;9.514;2022-10-16T14:30:34;26.10;66.50
36424;DHT22;22458;45.328;9.514;2022-10-16T14:33:02;26.10;66.50
36424;DHT22;22458;45.328;9.514;2022-10-16T14:35:32;26.10;66.60
36424;DHT22;22458;45.328;9.514;2022-10-16T14:37:59;26.10;66.60
36424;DHT22;22458;45.328;9.514;2022-10-16T14:40:27;26.20;66.50
36424;DHT22;22458;45.328;9.514;2022-10-16T14:42:52;26.20;66.40
36424;DHT22;22458;45.328;9.514;2022-10-16T14:45:19;26.20;66.30
36424;DHT22;22458;45.328;9.514;2022-10-16T14:47:47;26.10;66.20
36424;DHT22;22458;45.328;9.514;2022-10-16T14:50:13;26.10;66.30
36424;DHT22;22458;45.328;9.514;2022-10-16T14:52:39;26.00;66.30
36424;DHT22;22458;45.328;9.514;2022-10-16T14:55:04;26.10;66.30
36424;DHT22;22458;45.328;9.514;2022-10-16T14:57:31;26.00;66.20
36424;DHT22;22458;45.328;9.514;2022-10-16T14:59:58;25.90;66.10
36424;DHT22;22458;45.328;9.514;2022-10-16T15:02:31;25.90;66.20
36424;DHT22;22458;45.328;9.514;2022-10-16T15:04:57;25.90;66.20
36424;DHT22;22458;45.328;9.514;2022-10-16T15:07:23;25.90;66.30
36424;DHT22;22458;45.328;9.514;2022-10-16T15:09:49;25.90;66.30
36424;DHT22;22458;45.328;9.514;2022-10-16T15:12:16;25.90;66.30
36424;DHT22;22458;45.328;9.514;2022-10-16T15:14:42;25.90;66.50
36424;DHT22;22458;45.328;9.514;2022-10-16T15:17:10;25.80;66.40
36424;DHT22;22458;45.328;9.514;2022-10-16T15:19:36;25.90;66.40
36424;DHT22;22458;45.328;9.514;2022-10-16T15:22:02;25.90;66.40
36424;DHT22;22458;45.328;9.514;2022-10-16T15:24:27;25.90;66.50
36424;DHT22;22458;45.328;9.514;2022-10-16T15:26:53;25.80;66.40
36424;DHT22;22458;45.328;9.514;2022-10-16T15:29:19;25.80;66.70
36424;DHT22;22458;45.328;9.514;2022-10-16T15:31:44;25.70;66.80
36424;DHT22;22458;45.328;9.514;2022-10-16T15:34:12;25.70;66.80
36424;DHT22;22458;45.328;9.514;2022-10-16T15:36:39;25.60;66.80
36424;DHT22;22458;45.328;9.514;2022-10-16T15:39:14;25.60;66.80
36424;DHT22;22458;45.328;9.514;2022-10-16T15:41:40;25.70;66.80
36424;DHT22;22458;45.328;9.514;2022-10-16T15:44:06;25.70;66.70
36424;DHT22;22458;45.328;9.514;2022-10-16T15:46:32;25.70;66.70
36424;DHT22;22458;45.328;9.514;2022-10-16T15:48:59;25.70;66.80
36424;DHT22;22458;45.328;9.514;2022-10-16T15:51:25;25.60;66.80
36424;DHT22;22458;45.328;9.514;2022-10-16T15:53:58;25.60;66.90
36424;DHT22;22458;45.328;9.514;2022-10-16T15:56:24;25.60;66.90
36424;DHT22;22458;45.328;9.514;2022-10-16T15:58:54;25.50;67.10
36424;DHT22;22458;45.328;9.514;2022-10-16T16:01:20;25.50;67.20
36424;DHT22;22458;45.328;9.514;2022-10-16T16:03:46;25.40;67.40
36424;DHT22;22458;45.328;9.514;2022-10-16T16:06:12;25.30;67.40
36424;DHT22;22458;45.328;9.514;2022-10-16T16:08:38;25.20;67.60
36424;DHT22;22458;45.328;9.514;2022-10-16T16:11:05;25.20;67.80
36424;DHT22;22458;45.328;9.514;2022-10-16T16:13:31;25.10;68.00
36424;DHT22;22458;45.328;9.514;2022-10-16T16:15:57;25.00;68.20
36424;DHT22;22458;45.328;9.514;2022-10-16T16:18:23;24.90;68.40
36424;DHT22;22458;45.328;9.514;2022-10-16T16:20:49;24.90;68.50
36424;DHT22;22458;45.328;9.514;2022-10-16T16:23:15;24.80;68.60
36424;DHT22;22458;45.328;9.514;2022-10-16T16:25:41;24.70;68.80
36424;DHT22;22458;45.328;9.514;2022-10-16T16:28:07;24.70;68.90
36424;DHT22;22458;45.328;9.514;2022-10-16T16:30:36;24.60;68.90
36424;DHT22;22458;45.328;9.514;2022-10-16T16:33:01;24.60;69.20
36424;DHT22;22458;45.328;9.514;2022-10-16T16:35:27;24.50;69.30
36424;DHT22;22458;45.328;9.514;2022-10-16T16:37:53;24.40;69.40
36424;DHT22;22458;45.328;9.514;2022-10-16T16:40:18;24.30;69.60
36424;DHT22;22458;45.328;9.514;2022-10-16T16:42:44;24.20;69.80
36424;DHT22;22458;45.328;9.514;2022-10-16T16:45:09;24.10;69.90
36424;DHT22;22458;45.328;9.514;2022-10-16T16:47:35;24.10;70.00
36424;DHT22;22458;45.328;9.514;2022-10-16T16:50:01;24.00;69.90
36424;DHT22;22458;45.328;9.514;2022-10-16T16:52:30;24.00;70.10
36424;DHT22;22458;45.328;9.514;2022-10-16T16:54:55;24.00;70.30
36424;DHT22;22458;45.328;9.514;2022-10-16T16:57:21;23.90;70.30
36424;DHT22;22458;45.328;9.514;2022-10-16T16:59:47;23.90;70.40
36424;DHT22;22458;45.328;9.514;2022-10-16T17:02:15;23.80;70.40
36424;DHT22;22458;45.328;9.514;2022-10-16T17:04:40;23.80;70.50
36424;DHT22;22458;45.328;9.514;2022-10-16T17:07:06;23.80;70.50
36424;DHT22;22458;45.328;9.514;2022-10-16T17:09:32;23.70;70.50
36424;DHT22;22458;45.328;9.514;2022-10-16T17:11:58;23.70;70.60
36424;DHT22;22458;45.328;9.514;2022-10-16T17:14:24;23.60;70.70
36424;DHT22;22458;45.328;9.514;2022-10-16T17:16:49;23.50;70.80
36424;DHT22;22458;45.328;9.514;2022-10-16T17:19:17;23.40;71.00
36424;DHT22;22458;45.328;9.514;2022-10-16T17:21:43;23.30;71.30
36424;DHT22;22458;45.328;9.514;2022-10-16T17:24:09;23.30;71.40
36424;DHT22;22458;45.328;9.514;2022-10-16T17:26:35;23.20;71.50
36424;DHT22;22458;45.328;9.514;2022-10-16T17:29:02;23.20;71.60
36424;DHT22;22458;45.328;9.514;2022-10-16T17:31:33;23.10;71.80
36424;DHT22;22458;45.328;9.514;2022-10-16T17:33:59;23.00;72.50
36424;DHT22;22458;45.328;9.514;2022-10-16T17:36:25;22.90;72.00
36424;DHT22;22458;45.328;9.514;2022-10-16T17:38:54;22.90;72.30
36424;DHT22;22458;45.328;9.514;2022-10-16T17:41:20;22.80;72.60